createdAt,value
2019-04-06T00:00:35.225Z,96.30
2019-04-06T00:03:00.657Z,96.30
2019-04-06T00:05:26.010Z,96.40
2019-04-06T00:07:51.440Z,96.30
2019-04-06T00:10:17.138Z,96.50
2019-04-06T00:12:42.483Z,96.90
2019-04-06T00:15:08.370Z,96.60
2019-04-06T00:17:33.812Z,96.90
2019-04-06T00:19:59.157Z,96.80
2019-04-06T00:22:24.545Z,96.70
2019-04-06T00:24:50.965Z,96.70
2019-04-06T00:27:16.377Z,96.70
2019-04-06T00:29:41.730Z,96.60
2019-04-06T00:32:14.879Z,97.00
2019-04-06T00:34:40.349Z,97.50
2019-04-06T00:37:05.709Z,97.10
2019-04-06T00:39:31.126Z,97.00
2019-04-06T00:41:56.441Z,97.80
2019-04-06T00:44:21.879Z,98.00
2019-04-06T00:46:47.232Z,98.80
2019-04-06T00:49:13.650Z,98.30
2019-04-06T00:51:39.025Z,97.60
2019-04-06T00:54:04.377Z,97.70
2019-04-06T00:56:29.861Z,97.80
2019-04-06T00:58:55.209Z,97.60
2019-04-06T01:01:20.551Z,97.60
2019-04-06T01:03:45.922Z,97.70
2019-04-06T01:06:11.269Z,98.10
2019-04-06T01:08:36.670Z,98.70
2019-04-06T01:11:02.091Z,98.50
2019-04-06T01:13:28.545Z,98.30
2019-04-06T01:15:53.902Z,98.30
2019-04-06T01:18:19.266Z,99.30
2019-04-06T01:20:44.646Z,98.80
2019-04-06T01:23:09.982Z,98.90
2019-04-06T01:25:35.873Z,99.50
2019-04-06T01:28:01.213Z,99.80
2019-04-06T01:30:26.589Z,99.20
2019-04-06T01:32:51.928Z,99.50
2019-04-06T01:35:17.313Z,99.90
2019-04-06T01:37:42.653Z,99.70
2019-04-06T01:40:08.429Z,99.80
2019-04-06T01:42:33.802Z,99.80
2019-04-06T01:44:59.141Z,99.90
2019-04-06T01:47:24.878Z,99.90
2019-04-06T01:49:50.235Z,99.90
2019-04-06T01:52:15.595Z,99.90
2019-04-06T01:54:40.969Z,99.90
2019-04-06T01:57:06.314Z,99.90
2019-04-06T01:59:31.722Z,99.90
2019-04-06T02:02:16.011Z,99.90
2019-04-06T02:04:41.385Z,99.90
2019-04-06T02:07:06.794Z,99.90
2019-04-06T02:09:32.137Z,99.90
2019-04-06T02:11:57.569Z,99.90
2019-04-06T02:14:22.928Z,99.40
2019-04-06T02:16:48.265Z,99.90
2019-04-06T02:19:13.617Z,99.60
2019-04-06T02:21:38.998Z,99.80
2019-04-06T02:24:04.427Z,99.90
2019-04-06T02:26:31.195Z,99.90
2019-04-06T02:28:56.876Z,98.90
2019-04-06T02:31:40.197Z,99.60
2019-04-06T02:34:30.244Z,99.50
2019-04-06T02:37:13.358Z,99.50
2019-04-06T02:39:52.490Z,99.40
2019-04-06T02:42:28.882Z,99.60
2019-04-06T02:44:54.235Z,99.40
2019-04-06T02:47:19.634Z,98.90
2019-04-06T02:49:45.715Z,99.60
2019-04-06T02:52:11.078Z,99.50
2019-04-06T02:54:36.510Z,99.30
2019-04-06T02:57:01.832Z,99.60
2019-04-06T02:59:27.179Z,99.40
2019-04-06T03:01:52.563Z,99.30
2019-04-06T03:04:19.135Z,99.70
2019-04-06T03:06:44.569Z,99.60
2019-04-06T03:09:11.682Z,99.60
2019-04-06T03:11:36.932Z,99.70
2019-04-06T03:14:02.310Z,99.40
2019-04-06T03:16:27.690Z,99.70
2019-04-06T03:18:53.143Z,99.40
2019-04-06T03:21:18.615Z,99.40
2019-04-06T03:23:51.098Z,99.00
2019-04-06T03:26:11.219Z,99.30
2019-04-06T03:28:37.656Z,99.90
2019-04-06T03:31:03.034Z,99.70
2019-04-06T03:33:29.766Z,99.70
2019-04-06T03:35:55.207Z,99.60
2019-04-06T03:38:20.613Z,99.90
2019-04-06T03:40:45.954Z,99.80
2019-04-06T03:43:11.304Z,99.80
2019-04-06T03:45:36.685Z,99.40
2019-04-06T03:48:02.038Z,99.90
2019-04-06T03:50:27.421Z,99.90
2019-04-06T03:52:52.766Z,99.90
2019-04-06T03:55:18.215Z,99.90
2019-04-06T03:57:43.588Z,99.90
2019-04-06T04:00:09.643Z,99.90
2019-04-06T04:02:35.022Z,99.90
2019-04-06T04:05:00.366Z,99.90
2019-04-06T04:07:25.746Z,99.90
2019-04-06T04:09:51.080Z,99.90
2019-04-06T04:12:16.443Z,99.90
2019-04-06T04:14:41.903Z,99.90
2019-04-06T04:17:07.318Z,99.90
2019-04-06T04:19:32.654Z,99.90
2019-04-06T04:21:58.031Z,99.90
2019-04-06T04:24:23.386Z,99.90
2019-04-06T04:26:48.738Z,99.90
2019-04-06T04:29:14.116Z,99.90
2019-04-06T04:31:39.466Z,99.90
2019-04-06T04:34:04.957Z,99.90
2019-04-06T04:36:30.298Z,99.90
2019-04-06T04:38:55.747Z,99.90
2019-04-06T04:41:21.134Z,99.70
2019-04-06T04:43:46.462Z,99.90
2019-04-06T04:46:13.072Z,99.50
2019-04-06T04:48:38.657Z,99.80
2019-04-06T04:51:04.317Z,99.70
2019-04-06T04:53:29.990Z,99.60
2019-04-06T04:55:55.863Z,99.90
2019-04-06T04:58:21.206Z,99.90
2019-04-06T05:00:47.647Z,99.90
2019-04-06T05:03:13.017Z,99.90
2019-04-06T05:05:38.422Z,99.90
2019-04-06T05:08:03.894Z,99.90
2019-04-06T05:10:29.236Z,99.90
2019-04-06T05:12:54.609Z,99.90
2019-04-06T05:15:30.010Z,99.90
2019-04-06T05:17:55.499Z,99.90
2019-04-06T05:20:20.838Z,99.90
2019-04-06T05:22:46.178Z,99.60
2019-04-06T05:25:11.654Z,99.50
2019-04-06T05:27:37.037Z,99.60
2019-04-06T05:30:02.369Z,99.20
2019-04-06T05:32:27.790Z,99.30
2019-04-06T05:34:53.353Z,98.90
2019-04-06T05:37:18.834Z,99.20
2019-04-06T05:39:45.289Z,98.80
2019-04-06T05:42:10.663Z,98.80
2019-04-06T05:44:36.005Z,98.50
2019-04-06T05:47:01.381Z,98.00
2019-04-06T05:49:27.790Z,98.30
2019-04-06T05:51:53.190Z,98.20
2019-04-06T05:54:18.550Z,98.30
2019-04-06T05:56:43.973Z,97.90
2019-04-06T05:59:10.259Z,97.70
2019-04-06T06:01:36.306Z,97.10
2019-04-06T06:04:01.631Z,96.60
2019-04-06T06:06:27.340Z,96.70
2019-04-06T06:08:53.053Z,95.50
2019-04-06T06:11:18.409Z,92.60
2019-04-06T06:13:43.758Z,91.40
2019-04-06T06:16:11.454Z,91.10
2019-04-06T06:18:37.205Z,89.80
2019-04-06T06:21:02.604Z,85.50
2019-04-06T06:23:27.953Z,84.00
2019-04-06T06:25:53.344Z,83.50
2019-04-06T06:28:18.707Z,81.20
2019-04-06T06:30:44.166Z,80.10
2019-04-06T06:33:10.810Z,79.30
2019-04-06T06:35:36.373Z,77.80
2019-04-06T06:38:01.757Z,77.50
2019-04-06T06:40:27.587Z,75.80
2019-04-06T06:42:52.934Z,73.20
2019-04-06T06:45:18.329Z,71.40
2019-04-06T06:47:43.703Z,72.40
2019-04-06T06:50:09.070Z,69.40
2019-04-06T06:52:34.463Z,71.50
2019-04-06T06:54:59.813Z,69.10
2019-04-06T06:57:25.302Z,68.60
2019-04-06T06:59:51.005Z,65.90
2019-04-06T07:02:16.364Z,67.60
2019-04-06T07:04:42.093Z,67.80
2019-04-06T07:07:07.460Z,69.60
2019-04-06T07:09:33.097Z,68.80
2019-04-06T07:11:58.488Z,70.60
2019-04-06T07:14:23.927Z,69.70
2019-04-06T07:16:49.274Z,70.40
2019-04-06T07:19:14.648Z,69.20
2019-04-06T07:21:40.027Z,68.80
2019-04-06T07:24:05.567Z,69.60
2019-04-06T07:26:30.942Z,69.00
2019-04-06T07:28:56.316Z,69.70
2019-04-06T07:31:21.657Z,68.40
2019-04-06T07:33:47.049Z,68.00
2019-04-06T07:36:12.702Z,68.40
2019-04-06T07:38:38.492Z,69.30
2019-04-06T07:41:04.144Z,70.40
2019-04-06T07:43:30.578Z,71.30
2019-04-06T07:45:55.922Z,70.40
2019-04-06T07:48:21.389Z,70.60
2019-04-06T07:50:46.778Z,69.30
2019-04-06T07:53:12.135Z,67.80
2019-04-06T07:55:37.982Z,68.60
2019-04-06T07:58:03.336Z,69.70
2019-04-06T08:00:28.713Z,69.50
2019-04-06T08:02:54.068Z,69.50
2019-04-06T08:05:19.450Z,70.50
2019-04-06T08:07:45.182Z,70.50
2019-04-06T08:10:11.007Z,68.30
2019-04-06T08:12:36.517Z,69.50
2019-04-06T08:15:02.183Z,72.80
2019-04-06T08:17:27.991Z,70.50
2019-04-06T08:19:53.351Z,69.70
2019-04-06T08:22:18.736Z,70.10
2019-04-06T08:24:44.112Z,70.20
2019-04-06T08:27:09.475Z,69.10
2019-04-06T08:29:34.862Z,69.30
2019-04-06T08:32:00.221Z,69.70
2019-04-06T08:34:25.698Z,66.80
2019-04-06T08:36:51.360Z,68.60
2019-04-06T08:39:16.821Z,67.20
2019-04-06T08:41:42.196Z,66.00
2019-04-06T08:44:07.538Z,66.60
2019-04-06T08:46:32.916Z,66.30
2019-04-06T08:48:58.269Z,67.30
2019-04-06T08:51:23.660Z,67.40
2019-04-06T08:53:49.006Z,68.00
2019-04-06T08:56:14.405Z,67.90
2019-04-06T08:58:39.762Z,65.40
2019-04-06T09:01:05.170Z,67.00
2019-04-06T09:03:30.594Z,67.00
2019-04-06T09:05:55.942Z,64.70
2019-04-06T09:08:21.337Z,63.90
2019-04-06T09:10:46.929Z,64.20
2019-04-06T09:13:12.377Z,66.10
2019-04-06T09:15:37.734Z,62.60
2019-04-06T09:18:03.173Z,64.50
2019-04-06T09:20:28.526Z,63.70
2019-04-06T09:22:53.933Z,62.70
2019-04-06T09:25:19.277Z,61.10
2019-04-06T09:27:44.621Z,61.60
2019-04-06T09:30:10.439Z,62.30
2019-04-06T09:32:36.240Z,59.90
2019-04-06T09:35:01.627Z,62.00
2019-04-06T09:37:28.505Z,60.60
2019-04-06T09:39:53.894Z,60.60
2019-04-06T09:42:19.468Z,59.00
2019-04-06T09:44:57.099Z,59.40
2019-04-06T09:47:29.574Z,57.90
2019-04-06T09:50:16.781Z,58.90
2019-04-06T09:53:03.826Z,57.20
2019-04-06T09:56:03.893Z,58.50
2019-04-06T09:58:52.282Z,56.20
2019-04-06T10:01:38.877Z,59.10
2019-04-06T10:04:23.544Z,55.50
2019-04-06T10:07:07.946Z,55.60
2019-04-06T10:09:53.030Z,55.50
2019-04-06T10:12:35.888Z,56.20
2019-04-06T10:15:20.763Z,54.30
2019-04-06T10:18:01.685Z,55.40
2019-04-06T10:21:01.155Z,55.20
2019-04-06T10:23:39.186Z,54.20
2019-04-06T10:26:26.678Z,54.80
2019-04-06T10:29:10.115Z,55.30
2019-04-06T10:31:53.502Z,53.50
2019-04-06T10:34:38.154Z,54.30
2019-04-06T10:37:12.821Z,53.00
2019-04-06T10:39:59.917Z,52.60
2019-04-06T10:42:53.103Z,52.30
2019-04-06T10:45:34.807Z,52.10
2019-04-06T10:48:22.471Z,52.80
2019-04-06T10:51:05.535Z,51.40
2019-04-06T10:53:47.042Z,52.60
2019-04-06T10:56:31.356Z,50.90
2019-04-06T10:59:34.066Z,52.20
2019-04-06T11:02:27.242Z,49.40
2019-04-06T11:05:10.394Z,51.70
2019-04-06T11:07:52.286Z,51.00
2019-04-06T11:10:52.281Z,51.00
2019-04-06T11:13:27.352Z,52.50
2019-04-06T11:16:11.697Z,52.10
2019-04-06T11:19:04.919Z,51.50
2019-04-06T11:22:04.307Z,51.20
2019-04-06T11:24:57.715Z,50.50
2019-04-06T11:27:32.639Z,51.60
2019-04-06T11:30:25.521Z,49.10
2019-04-06T11:33:10.560Z,48.30
2019-04-06T11:35:47.793Z,47.40
2019-04-06T11:38:26.929Z,48.70
2019-04-06T11:41:03.417Z,46.80
2019-04-06T11:43:53.929Z,46.20
2019-04-06T11:46:28.007Z,48.00
2019-04-06T11:49:30.656Z,46.60
2019-04-06T11:52:13.559Z,47.90
2019-04-06T11:55:03.957Z,47.10
2019-04-06T11:57:54.145Z,47.10
2019-04-06T12:00:32.491Z,46.70
2019-04-06T12:03:11.111Z,46.40
2019-04-06T12:06:13.554Z,46.40
2019-04-06T12:09:03.807Z,46.90
2019-04-06T12:11:51.982Z,46.70
2019-04-06T12:14:35.287Z,46.90
2019-04-06T12:17:22.529Z,48.10
2019-04-06T12:20:05.563Z,46.30
2019-04-06T12:22:52.899Z,45.10
2019-04-06T12:25:30.111Z,45.10
2019-04-06T12:28:14.285Z,45.80
2019-04-06T12:30:57.059Z,45.20
2019-04-06T12:33:42.528Z,45.60
2019-04-06T12:36:18.639Z,45.70
2019-04-06T12:39:15.069Z,44.70
2019-04-06T12:41:53.365Z,43.80
2019-04-06T12:44:36.798Z,44.40
2019-04-06T12:47:30.312Z,44.80
2019-04-06T12:50:16.645Z,44.30
2019-04-06T12:52:48.222Z,45.70
2019-04-06T12:55:25.520Z,44.80
2019-04-06T12:58:09.949Z,44.40
2019-04-06T13:00:53.143Z,45.00
2019-04-06T13:03:25.879Z,45.30
2019-04-06T13:05:58.458Z,44.50
2019-04-06T13:08:43.118Z,44.10
2019-04-06T13:11:26.113Z,44.30
2019-04-06T13:14:13.481Z,44.70
2019-04-06T13:17:13.238Z,45.00
2019-04-06T13:19:47.922Z,45.10
2019-04-06T13:22:31.349Z,46.00
2019-04-06T13:25:18.697Z,46.80
2019-04-06T13:28:03.041Z,45.50
2019-04-06T13:30:46.002Z,46.40
2019-04-06T13:33:33.665Z,46.70
2019-04-06T13:36:17.112Z,45.10
2019-04-06T13:39:07.239Z,45.50
2019-04-06T13:41:50.266Z,43.60
2019-04-06T13:44:37.377Z,44.60
2019-04-06T13:47:16.969Z,45.10
2019-04-06T13:50:00.486Z,45.00
2019-04-06T13:52:33.001Z,44.10
2019-04-06T13:55:35.768Z,41.90
2019-04-06T13:58:26.102Z,41.80
2019-04-06T14:01:25.442Z,41.10
2019-04-06T14:04:13.505Z,39.90
2019-04-06T14:07:03.719Z,38.50
2019-04-06T14:09:48.155Z,38.70
2019-04-06T14:12:38.725Z,38.30
2019-04-06T14:15:27.009Z,38.80
2019-04-06T14:18:26.709Z,39.10
2019-04-06T14:21:10.610Z,38.40
2019-04-06T14:23:55.187Z,38.30
2019-04-06T14:26:58.124Z,38.70
2019-04-06T14:29:30.969Z,38.50
2019-04-06T14:32:13.945Z,38.30
2019-04-06T14:34:58.277Z,37.90
2019-04-06T14:37:45.615Z,39.00
2019-04-06T14:40:48.258Z,39.90
2019-04-06T14:43:30.824Z,40.30
2019-04-06T14:46:06.015Z,39.60
2019-04-06T14:48:39.226Z,39.90
2019-04-06T14:51:14.121Z,39.90
2019-04-06T14:54:01.491Z,38.50
2019-04-06T14:56:43.844Z,39.80
2019-04-06T14:59:28.302Z,39.00
2019-04-06T15:02:00.153Z,39.80
2019-04-06T15:04:44.525Z,40.90
2019-04-06T15:07:20.897Z,40.90
2019-04-06T15:10:20.616Z,41.30
2019-04-06T15:12:57.694Z,41.60
2019-04-06T15:15:30.598Z,42.10
2019-04-06T15:18:06.854Z,42.80
2019-04-06T15:20:51.525Z,42.60
2019-04-06T15:23:27.875Z,42.50
2019-04-06T15:26:02.925Z,42.00
2019-04-06T15:28:46.187Z,41.70
2019-04-06T15:31:30.581Z,42.40
2019-04-06T15:34:24.161Z,43.20
2019-04-06T15:37:17.725Z,42.70
2019-04-06T15:40:02.094Z,43.20
2019-04-06T15:42:53.375Z,42.80
2019-04-06T15:45:41.090Z,42.70
2019-04-06T15:48:36.518Z,43.10
2019-04-06T15:51:00.933Z,42.90
2019-04-06T15:53:38.567Z,43.50
2019-04-06T15:56:18.119Z,44.30
2019-04-06T15:58:53.365Z,43.60
2019-04-06T16:01:36.601Z,44.10
2019-04-06T16:04:26.738Z,44.50
2019-04-06T16:07:30.116Z,44.50
2019-04-06T16:10:05.790Z,45.90
2019-04-06T16:12:45.763Z,44.80
2019-04-06T16:15:25.308Z,44.60
2019-04-06T16:18:09.596Z,45.20
2019-04-06T16:20:41.654Z,46.00
2019-04-06T16:23:43.896Z,45.80
2019-04-06T16:26:24.731Z,46.30
2019-04-06T16:29:02.386Z,46.40
2019-04-06T16:31:50.025Z,46.70
2019-04-06T16:34:33.335Z,46.80
2019-04-06T16:37:19.228Z,47.20
2019-04-06T16:39:55.551Z,46.10
2019-04-06T16:42:31.854Z,47.20
2019-04-06T16:45:08.902Z,46.90
2019-04-06T16:47:53.332Z,47.00
2019-04-06T16:50:33.730Z,47.90
2019-04-06T16:53:18.051Z,47.60
2019-04-06T16:56:11.601Z,47.70
2019-04-06T16:58:44.363Z,47.50
2019-04-06T17:01:41.253Z,47.60
2019-04-06T17:04:24.725Z,48.30
2019-04-06T17:07:17.989Z,48.20
2019-04-06T17:10:15.744Z,48.30
2019-04-06T17:12:58.883Z,48.80
2019-04-06T17:15:37.931Z,48.50
2019-04-06T17:18:17.442Z,49.10
2019-04-06T17:21:13.003Z,49.80
2019-04-06T17:24:06.601Z,50.30
2019-04-06T17:26:41.309Z,49.90
2019-04-06T17:29:14.341Z,50.40
2019-04-06T17:32:04.224Z,50.30
2019-04-06T17:34:54.250Z,50.30
2019-04-06T17:37:33.037Z,51.50
2019-04-06T17:40:16.677Z,51.10
2019-04-06T17:42:57.578Z,51.10
2019-04-06T17:45:44.977Z,51.50
2019-04-06T17:48:18.394Z,52.60
2019-04-06T17:51:14.837Z,52.30
2019-04-06T17:53:59.600Z,52.70
2019-04-06T17:56:47.593Z,53.60
2019-04-06T17:59:39.689Z,52.90
2019-04-06T18:02:27.570Z,54.40
2019-04-06T18:05:10.504Z,54.80
2019-04-06T18:07:55.665Z,55.00
2019-04-06T18:10:44.639Z,55.20
2019-04-06T18:13:33.301Z,55.60
2019-04-06T18:15:58.817Z,57.00
2019-04-06T18:18:24.170Z,57.00
2019-04-06T18:20:49.601Z,56.50
2019-04-06T18:23:15.279Z,57.90
2019-04-06T18:25:40.760Z,58.40
2019-04-06T18:28:06.342Z,58.00
2019-04-06T18:30:31.706Z,57.80
2019-04-06T18:33:03.035Z,59.20
2019-04-06T18:35:28.094Z,59.80
2019-04-06T18:38:11.793Z,58.80
2019-04-06T18:40:56.223Z,59.00
2019-04-06T18:43:21.892Z,58.40
2019-04-06T18:45:47.692Z,59.10
2019-04-06T18:48:13.334Z,58.70
2019-04-06T18:50:39.116Z,58.50
2019-04-06T18:53:04.632Z,58.10
2019-04-06T18:55:30.001Z,60.00
2019-04-06T18:57:55.943Z,58.60
2019-04-06T19:00:24.191Z,59.30
2019-04-06T19:02:49.574Z,59.00
2019-04-06T19:05:15.334Z,59.20
2019-04-06T19:07:52.037Z,60.00
2019-04-06T19:10:17.629Z,59.10
2019-04-06T19:12:43.089Z,61.70
2019-04-06T19:15:09.556Z,61.00
2019-04-06T19:17:34.922Z,60.60
2019-04-06T19:20:00.269Z,61.30
2019-04-06T19:22:26.072Z,62.40
2019-04-06T19:24:51.922Z,61.00
2019-04-06T19:27:17.421Z,60.40
2019-04-06T19:29:42.788Z,61.40
2019-04-06T19:32:08.117Z,62.60
2019-04-06T19:34:33.500Z,62.40
2019-04-06T19:36:59.108Z,61.40
2019-04-06T19:39:24.606Z,61.00
2019-04-06T19:41:49.950Z,62.50
2019-04-06T19:44:15.981Z,61.90
2019-04-06T19:46:41.469Z,62.70
2019-04-06T19:49:07.517Z,62.60
2019-04-06T19:51:33.150Z,62.80
2019-04-06T19:53:59.559Z,61.70
2019-04-06T19:56:24.961Z,62.50
2019-04-06T19:58:50.298Z,62.30
2019-04-06T20:01:15.975Z,63.00
2019-04-06T20:03:41.452Z,62.40
2019-04-06T20:06:06.791Z,64.90
2019-04-06T20:08:32.162Z,64.20
2019-04-06T20:10:57.526Z,66.80
2019-04-06T20:13:23.257Z,67.50
2019-04-06T20:15:49.074Z,67.50
2019-04-06T20:18:14.601Z,66.00
2019-04-06T20:20:40.002Z,67.80
2019-04-06T20:23:05.379Z,69.00
2019-04-06T20:25:30.765Z,68.20
2019-04-06T20:27:56.613Z,66.80
2019-04-06T20:30:22.030Z,67.60
2019-04-06T20:32:47.388Z,66.90
2019-04-06T20:35:14.576Z,67.80
2019-04-06T20:37:40.076Z,66.90
2019-04-06T20:40:06.682Z,68.30
2019-04-06T20:42:32.444Z,70.20
2019-04-06T20:44:58.116Z,69.60
2019-04-06T20:47:23.575Z,69.20
2019-04-06T20:49:48.966Z,70.80
2019-04-06T20:52:14.338Z,71.40
2019-04-06T20:54:40.054Z,69.50
2019-04-06T20:57:06.583Z,70.40
2019-04-06T20:59:32.008Z,70.70
2019-04-06T21:01:57.826Z,71.60
2019-04-06T21:04:23.645Z,71.40
2019-04-06T21:06:49.261Z,70.50
2019-04-06T21:09:15.095Z,71.30
2019-04-06T21:11:40.659Z,72.60
2019-04-06T21:14:06.146Z,72.40
2019-04-06T21:16:31.573Z,73.10
2019-04-06T21:18:57.417Z,72.10
2019-04-06T21:21:22.890Z,72.20
2019-04-06T21:23:48.464Z,72.10
2019-04-06T21:26:13.949Z,72.10
2019-04-06T21:28:39.298Z,72.60
2019-04-06T21:31:05.039Z,71.60
2019-04-06T21:33:30.850Z,72.10
2019-04-06T21:35:56.261Z,72.00
2019-04-06T21:38:21.847Z,71.80
2019-04-06T21:40:47.194Z,71.90
2019-04-06T21:43:12.575Z,72.10
2019-04-06T21:45:37.938Z,73.30
2019-04-06T21:48:03.704Z,72.50
2019-04-06T21:50:29.683Z,73.20
2019-04-06T21:52:55.803Z,74.90
2019-04-06T21:55:21.848Z,73.50
2019-04-06T21:57:47.705Z,73.70
2019-04-06T22:00:16.750Z,73.90
2019-04-06T22:02:43.825Z,74.60
2019-04-06T22:05:10.332Z,74.10
2019-04-06T22:07:47.151Z,74.50
2019-04-06T22:10:04.203Z,74.80
2019-04-06T22:12:29.641Z,74.80
2019-04-06T22:14:56.382Z,75.10
2019-04-06T22:17:21.914Z,74.70
2019-04-06T22:19:47.306Z,75.20
2019-04-06T22:22:12.678Z,75.40
2019-04-06T22:24:38.435Z,76.60
2019-04-06T22:27:03.939Z,76.10
2019-04-06T22:29:29.824Z,77.00
2019-04-06T22:31:56.459Z,77.50
2019-04-06T22:34:21.849Z,78.30
2019-04-06T22:36:47.195Z,78.40
2019-04-06T22:39:12.610Z,77.90
2019-04-06T22:41:38.137Z,78.90
2019-04-06T22:44:04.163Z,79.00
2019-04-06T22:46:29.715Z,79.00
2019-04-06T22:48:55.238Z,80.10
2019-04-06T22:51:20.755Z,80.00
2019-04-06T22:53:46.466Z,79.90
2019-04-06T22:56:12.133Z,80.00
2019-04-06T22:58:37.819Z,81.20
2019-04-06T23:01:12.910Z,81.50
2019-04-06T23:04:06.542Z,80.70
2019-04-06T23:06:36.655Z,80.80
2019-04-06T23:09:02.002Z,81.20
2019-04-06T23:11:28.648Z,82.80
2019-04-06T23:13:54.119Z,81.80
2019-04-06T23:16:19.474Z,83.40
2019-04-06T23:18:45.375Z,83.20
2019-04-06T23:21:10.936Z,84.10
2019-04-06T23:23:36.265Z,83.40
2019-04-06T23:26:02.568Z,83.70
2019-04-06T23:28:29.590Z,84.00
2019-04-06T23:30:55.045Z,85.50
2019-04-06T23:33:21.145Z,85.80
2019-04-06T23:35:47.089Z,83.60
2019-04-06T23:38:12.544Z,85.30
2019-04-06T23:40:37.922Z,84.80
2019-04-06T23:43:03.273Z,84.40
2019-04-06T23:45:28.854Z,84.80
2019-04-06T23:47:54.777Z,86.00
2019-04-06T23:50:20.226Z,85.20
2019-04-06T23:52:45.596Z,86.20
2019-04-06T23:55:11.884Z,86.50
2019-04-06T23:57:37.342Z,86.50
